Time;durP1;ratioP1;P1;durP2;ratioP2;P2;SDS_P1;SDS_P2;PMS_P1;PMS_P2;Temp;Humidity;BMP_temperature;BMP_pressure;BME280_temperature;BME280_humidity;BME280_pressure;Samples;Min_cycle;Max_cycle;Signal;HPM_P1;HPM_P2
2023/01/08 00:01:07;;;;;;;57.78;52.30;;;;;;;-2.39;100.00;101803.28;5056240;28;20106;-81
2023/01/08 00:03:36;;;;;;;59.05;53.45;;;;;;;-2.32;100.00;101807.22;5052184;28;20053;-81
2023/01/08 00:06:05;;;;;;;61.83;56.20;;;;;;;-2.31;100.00;101808.88;5052678;28;20568;-81
2023/01/08 00:08:32;;;;;;;57.08;51.88;;;;;;;-2.15;100.00;101808.72;5051477;28;20053;-80
2023/01/08 00:10:59;;;;;;;61.90;56.03;;;;;;;-2.13;100.00;101805.09;5051923;28;20045;-81
2023/01/08 00:13:26;;;;;;;58.72;53.00;;;;;;;-2.33;100.00;101808.97;5052676;28;20041;-81
2023/01/08 00:15:53;;;;;;;58.55;52.53;;;;;;;-2.33;100.00;101816.78;5052808;28;20119;-81
2023/01/08 00:18:20;;;;;;;56.70;51.45;;;;;;;-2.68;100.00;101812.91;5052961;28;20099;-81
2023/01/08 00:20:48;;;;;;;59.72;53.92;;;;;;;-2.66;100.00;101809.28;5052746;28;20049;-81
2023/01/08 00:23:17;;;;;;;67.80;61.55;;;;;;;-2.64;100.00;101804.81;5052263;28;20041;-81
2023/01/08 00:25:43;;;;;;;74.57;68.07;;;;;;;-2.61;100.00;101811.59;5054864;28;20049;-80
2023/01/08 00:28:10;;;;;;;67.03;60.45;;;;;;;-2.78;100.00;101807.44;5053008;28;20956;-81
2023/01/08 00:30:38;;;;;;;69.82;62.35;;;;;;;-2.92;100.00;101804.81;5056747;28;20045;-81
2023/01/08 00:33:04;;;;;;;77.88;70.68;;;;;;;-2.74;100.00;101813.28;5050644;28;20083;-80
2023/01/08 00:35:31;;;;;;;62.83;56.03;;;;;;;-2.82;100.00;101805.94;5052595;28;20053;-81
2023/01/08 00:37:59;;;;;;;63.58;56.95;;;;;;;-2.82;100.00;101800.72;5052037;28;20051;-80
2023/01/08 00:40:26;;;;;;;67.82;60.85;;;;;;;-2.90;100.00;101798.59;5051373;28;20053;-81
2023/01/08 00:42:53;;;;;;;64.68;58.25;;;;;;;-3.00;100.00;101800.06;5052724;28;20052;-80
2023/01/08 00:45:19;;;;;;;60.08;54.30;;;;;;;-3.11;100.00;101794.69;5052228;28;20103;-81
2023/01/08 00:47:46;;;;;;;59.50;53.97;;;;;;;-3.09;100.00;101809.25;5051922;28;20041;-80
2023/01/08 00:50:13;;;;;;;59.72;54.05;;;;;;;-2.96;100.00;101803.34;5051529;28;20045;-81
2023/01/08 00:52:40;;;;;;;60.78;54.88;;;;;;;-2.95;100.00;101808.44;5050344;28;20057;-80
2023/01/08 00:55:09;;;;;;;58.63;52.83;;;;;;;-2.77;100.00;101806.50;5052255;28;20457;-80
2023/01/08 00:57:37;;;;;;;65.72;59.72;;;;;;;-2.72;100.00;101812.25;5052588;28;20048;-80
2023/01/08 01:00:06;;;;;;;59.63;53.88;;;;;;;-2.67;100.00;101806.75;5056857;28;20041;-80
2023/01/08 01:02:34;;;;;;;58.95;53.05;;;;;;;-3.17;100.00;101808.06;5050133;28;20114;-81
2023/01/08 01:05:01;;;;;;;62.47;56.50;;;;;;;-2.79;100.00;101803.16;5049809;28;20115;-81
2023/01/08 01:07:28;;;;;;;60.58;54.67;;;;;;;-3.05;100.00;101802.97;5047692;28;20045;-80
2023/01/08 01:09:55;;;;;;;64.38;57.90;;;;;;;-2.95;100.00;101805.00;5050141;28;20041;-81
2023/01/08 01:12:23;;;;;;;63.00;56.65;;;;;;;-2.61;100.00;101804.63;5050219;28;20095;-80
2023/01/08 01:14:50;;;;;;;61.78;55.65;;;;;;;-2.53;100.00;101792.00;5050152;28;20044;-81
2023/01/08 01:17:16;;;;;;;63.92;57.70;;;;;;;-2.66;100.00;101805.81;5049670;28;20044;-80
2023/01/08 01:19:44;;;;;;;63.95;57.53;;;;;;;-2.76;100.00;101790.78;5050329;28;20522;-80
2023/01/08 01:22:11;;;;;;;61.42;55.75;;;;;;;-2.97;100.00;101794.69;5049578;28;20041;-80
2023/01/08 01:24:38;;;;;;;58.08;52.90;;;;;;;-2.87;100.00;101792.38;5049001;28;20044;-80
2023/01/08 01:27:05;;;;;;;60.25;54.25;;;;;;;-2.74;100.00;101795.91;5049616;28;20506;-81
2023/01/08 01:29:33;;;;;;;62.85;57.00;;;;;;;-2.65;100.00;101789.31;5052321;28;20531;-80
2023/01/08 01:31:59;;;;;;;58.85;52.60;;;;;;;-2.74;100.00;101785.50;5049357;28;20041;-81
2023/01/08 01:34:26;;;;;;;58.38;52.78;;;;;;;-2.69;100.00;101787.81;5052449;28;20052;-80
2023/01/08 01:36:53;;;;;;;56.97;51.58;;;;;;;-2.76;100.00;101782.16;5049880;28;20041;-81
2023/01/08 01:39:20;;;;;;;58.95;53.55;;;;;;;-2.69;100.00;101783.47;5049448;28;20456;-81
2023/01/08 01:41:47;;;;;;;59.83;53.92;;;;;;;-2.71;100.00;101774.09;5049213;28;20053;-81
2023/01/08 01:44:41;;;;;;;59.72;53.55;;;;;;;-2.67;100.00;101771.19;5049553;28;20044;-80
2023/01/08 01:47:20;;;;;;;60.60;55.08;;;;;;;-2.74;100.00;101769.06;5049685;28;20098;-81
2023/01/08 01:49:53;;;;;;;61.45;55.58;;;;;;;-2.57;100.00;101776.69;5049442;28;20046;-80
2023/01/08 01:52:21;;;;;;;60.63;55.28;;;;;;;-2.98;100.00;101764.44;5048104;28;20478;-80
2023/01/08 01:54:49;;;;;;;60.10;54.05;;;;;;;-2.90;100.00;101775.22;5048544;28;20099;-81
2023/01/08 01:57:16;;;;;;;56.20;51.03;;;;;;;-2.81;100.00;101771.22;5049696;28;20049;-80
2023/01/08 01:59:45;;;;;;;59.33;53.95;;;;;;;-2.55;100.00;101773.03;5052394;28;20070;-81
2023/01/08 02:02:12;;;;;;;58.97;53.33;;;;;;;-2.28;100.00;101767.03;5050948;28;20052;-80
2023/01/08 02:04:39;;;;;;;55.13;49.67;;;;;;;-2.50;100.00;101769.31;5048224;28;20057;-81
2023/01/08 02:07:14;;;;;;;58.38;52.35;;;;;;;-2.54;100.00;101773.88;5049111;28;20076;-80
2023/01/08 02:09:47;;;;;;;57.53;51.92;;;;;;;-2.35;100.00;101777.00;5047483;28;20399;-81
2023/01/08 02:12:19;;;;;;;57.95;52.42;;;;;;;-2.38;100.00;101777.19;5049877;28;20044;-80
2023/01/08 02:15:02;;;;;;;65.00;58.55;;;;;;;-2.42;100.00;101767.06;5049284;28;20060;-81
2023/01/08 02:17:37;;;;;;;59.60;53.20;;;;;;;-2.42;100.00;101769.66;5051479;28;20106;-81
2023/01/08 02:20:10;;;;;;;56.20;50.97;;;;;;;-2.36;100.00;101764.94;5048051;28;20045;-81
2023/01/08 02:23:05;;;;;;;57.50;52.05;;;;;;;-2.37;100.00;101763.25;5048706;28;20048;-81
2023/01/08 02:25:46;;;;;;;62.88;56.67;;;;;;;-2.59;100.00;101765.53;5048854;28;20041;-81
2023/01/08 02:28:16;;;;;;;61.60;55.33;;;;;;;-2.44;100.00;101751.56;5047315;28;20053;-81
2023/01/08 02:30:44;;;;;;;61.28;55.83;;;;;;;-2.37;100.00;101760.63;5053496;28;20494;-80
2023/01/08 02:33:12;;;;;;;80.63;66.95;;;;;;;-2.33;100.00;101758.66;5048566;28;20044;-81
2023/01/08 02:35:42;;;;;;;70.45;60.88;;;;;;;-2.48;100.00;101763.09;5048987;28;20733;-80
2023/01/08 02:38:12;;;;;;;73.40;65.15;;;;;;;-2.54;100.00;101772.13;5048691;28;20057;-80
2023/01/08 02:40:53;;;;;;;88.35;73.95;;;;;;;-2.48;100.00;101762.25;5048098;28;20105;-81
2023/01/08 02:43:26;;;;;;;79.90;62.97;;;;;;;-2.36;100.00;101764.06;5048897;28;20048;-81
2023/01/08 02:45:59;;;;;;;67.72;58.38;;;;;;;-2.40;100.00;101775.63;5049694;28;20531;-80
2023/01/08 02:48:34;;;;;;;70.63;63.50;;;;;;;-2.33;100.00;101756.06;5048591;28;20049;-80
2023/01/08 02:51:08;;;;;;;75.93;68.45;;;;;;;-2.36;100.00;101764.06;5047446;28;20568;-80
2023/01/08 02:53:40;;;;;;;64.75;56.63;;;;;;;-2.35;100.00;101756.19;5048869;28;20045;-81
2023/01/08 02:56:11;;;;;;;66.60;59.33;;;;;;;-2.58;100.00;101762.81;5048746;28;20045;-81
2023/01/08 02:58:40;;;;;;;66.22;58.10;;;;;;;-2.43;100.00;101768.00;5048220;28;20079;-81
2023/01/08 03:03:49;;;;;;;69.53;62.10;;;;;;;-3.04;100.00;101755.22;5086315;27;20946;-82
2023/01/08 03:06:19;;;;;;;63.03;56.53;;;;;;;-2.80;100.00;101763.31;5071334;28;20056;-82
2023/01/08 03:08:49;;;;;;;68.20;56.95;;;;;;;-2.70;100.00;101770.53;5070399;28;20040;-81
2023/01/08 03:11:18;;;;;;;68.80;61.65;;;;;;;-2.59;100.00;101770.72;5068786;28;20041;-82
2023/01/08 03:13:49;;;;;;;66.70;59.97;;;;;;;-2.61;100.00;101768.22;5069832;28;20417;-81
2023/01/08 03:16:23;;;;;;;63.50;56.67;;;;;;;-2.63;100.00;101777.88;5071131;28;20049;-82
2023/01/08 03:18:59;;;;;;;65.82;59.67;;;;;;;-2.51;100.00;101765.91;5068320;28;20139;-81
2023/01/08 03:21:27;;;;;;;61.58;55.88;;;;;;;-2.49;100.00;101771.81;5068194;28;20509;-81
2023/01/08 03:23:54;;;;;;;66.57;59.58;;;;;;;-2.96;100.00;101759.16;5072177;28;20052;-81
2023/01/08 03:26:24;;;;;;;57.70;52.10;;;;;;;-2.67;100.00;101772.97;5068257;28;20194;-82
2023/01/08 03:28:53;;;;;;;64.90;58.78;;;;;;;-2.44;100.00;101776.75;5067072;28;20049;-81
2023/01/08 03:31:22;;;;;;;59.13;53.05;;;;;;;-2.45;100.00;101770.72;5068574;28;20106;-82
2023/01/08 03:33:51;;;;;;;55.17;49.90;;;;;;;-2.37;100.00;101765.84;5070207;28;20049;-81
2023/01/08 03:36:24;;;;;;;58.22;52.53;;;;;;;-2.36;100.00;101766.69;5068595;28;20041;-81
2023/01/08 03:38:56;;;;;;;57.55;51.95;;;;;;;-2.38;100.00;101778.97;5067174;28;20121;-82
2023/01/08 03:41:26;;;;;;;61.20;55.25;;;;;;;-2.43;100.00;101775.81;5066819;28;20098;-82
2023/01/08 03:43:52;;;;;;;62.60;56.15;;;;;;;-2.59;100.00;101773.34;5068793;28;20041;-82
2023/01/08 03:46:26;;;;;;;65.32;59.13;;;;;;;-2.86;100.00;101765.44;5067264;28;20041;-81
2023/01/08 03:48:56;;;;;;;65.80;59.40;;;;;;;-2.73;100.00;101774.16;5067790;28;20114;-81
2023/01/08 03:51:22;;;;;;;64.07;57.88;;;;;;;-2.62;100.00;101757.91;5066633;28;20041;-81
2023/01/08 03:53:52;;;;;;;61.92;55.95;;;;;;;-2.90;100.00;101762.22;5071248;28;20501;-82
2023/01/08 03:56:19;;;;;;;62.22;56.30;;;;;;;-2.84;100.00;101761.84;5069579;28;20044;-82
2023/01/08 03:58:45;;;;;;;58.00;52.70;;;;;;;-3.05;100.00;101750.97;5068167;28;20463;-81
2023/01/08 04:01:12;;;;;;;60.53;54.47;;;;;;;-2.94;100.00;101758.09;5071078;28;20044;-81
2023/01/08 04:06:22;;;;;;;61.78;55.63;;;;;;;-2.93;100.00;101752.00;5048652;27;20416;-81
2023/01/08 04:08:49;;;;;;;57.45;51.92;;;;;;;-2.95;100.00;101747.81;5047488;28;20049;-82
2023/01/08 04:11:17;;;;;;;59.17;53.30;;;;;;;-3.34;100.00;101755.28;5048994;28;20099;-81
2023/01/08 04:13:43;;;;;;;61.33;55.75;;;;;;;-3.14;100.00;101767.13;5047913;28;20057;-81
2023/01/08 04:16:10;;;;;;;68.65;62.05;;;;;;;-3.01;100.00;101764.59;5048279;28;20049;-81
2023/01/08 04:18:37;;;;;;;63.28;57.25;;;;;;;-2.91;100.00;101765.72;5047549;28;20049;-81
2023/01/08 04:21:04;;;;;;;60.10;54.42;;;;;;;-2.76;100.00;101763.94;5049048;28;20045;-82
2023/01/08 04:23:32;;;;;;;59.97;53.80;;;;;;;-2.90;100.00;101745.78;5049011;28;20041;-82
2023/01/08 04:25:59;;;;;;;60.72;55.15;;;;;;;-3.02;100.00;101761.19;5047375;28;20131;-82
2023/01/08 04:28:25;;;;;;;68.65;61.20;;;;;;;-3.26;100.00;101747.06;5047955;28;20518;-81
2023/01/08 04:30:52;;;;;;;75.85;66.85;;;;;;;-2.98;100.00;101732.41;5052835;28;20136;-82
2023/01/08 04:33:19;;;;;;;71.60;63.88;;;;;;;-3.18;100.00;101733.59;5048734;28;20053;-82
2023/01/08 04:35:46;;;;;;;60.35;53.85;;;;;;;-3.18;100.00;101743.97;5048043;28;20120;-81
2023/01/08 04:38:12;;;;;;;73.10;65.35;;;;;;;-3.06;100.00;101744.06;5046653;28;20064;-82
2023/01/08 04:40:40;;;;;;;74.63;67.13;;;;;;;-3.16;100.00;101742.97;5046735;28;20103;-81
2023/01/08 04:43:07;;;;;;;67.70;61.25;;;;;;;-3.06;100.00;101738.88;5047475;28;20103;-81
2023/01/08 04:45:34;;;;;;;60.28;54.47;;;;;;;-2.97;100.00;101742.69;5050491;28;20041;-81
2023/01/08 04:48:01;;;;;;;57.47;52.13;;;;;;;-2.94;100.00;101736.47;5047062;28;20098;-81
2023/01/08 04:50:28;;;;;;;57.55;51.95;;;;;;;-3.05;100.00;101737.97;5048006;28;20201;-82
2023/01/08 04:52:54;;;;;;;64.38;58.08;;;;;;;-3.31;100.00;101733.50;5047112;28;20057;-82
2023/01/08 04:55:21;;;;;;;60.95;55.08;;;;;;;-3.14;100.00;101740.28;5048285;28;20472;-81
2023/01/08 04:57:50;;;;;;;59.28;53.40;;;;;;;-3.02;100.00;101745.59;5048277;28;20057;-82
2023/01/08 05:00:17;;;;;;;62.03;55.55;;;;;;;-3.00;100.00;101743.72;5053010;28;20106;-81
2023/01/08 05:02:44;;;;;;;60.78;55.03;;;;;;;-3.16;100.00;101745.56;5046683;28;20115;-81
2023/01/08 05:05:10;;;;;;;58.67;53.28;;;;;;;-3.03;100.00;101738.69;5045379;28;20131;-81
2023/01/08 05:07:37;;;;;;;56.40;50.95;;;;;;;-2.86;100.00;101739.44;5046344;28;20049;-82
2023/01/08 05:10:04;;;;;;;60.60;55.00;;;;;;;-3.20;100.00;101746.69;5045520;28;20045;-81
2023/01/08 05:12:31;;;;;;;65.97;58.83;;;;;;;-3.07;100.00;101759.78;5045420;28;20057;-81
2023/01/08 05:14:59;;;;;;;61.00;54.53;;;;;;;-3.25;100.00;101746.13;5047670;28;20045;-81
2023/01/08 05:17:26;;;;;;;65.07;58.08;;;;;;;-3.39;100.00;101757.31;5034251;28;20041;-82
2023/01/08 05:19:53;;;;;;;65.10;58.97;;;;;;;-3.24;100.00;101768.56;5031777;28;20045;-82
2023/01/08 05:22:19;;;;;;;64.82;58.28;;;;;;;-3.50;100.00;101765.75;5032970;28;20045;-82
2023/01/08 05:24:46;;;;;;;61.53;55.83;;;;;;;-3.56;100.00;101758.31;5031708;28;20418;-82
2023/01/08 05:27:13;;;;;;;62.47;56.70;;;;;;;-3.58;100.00;101765.34;5034688;28;20049;-81
2023/01/08 05:29:40;;;;;;;61.20;54.72;;;;;;;-3.51;100.00;101763.22;5035497;28;20104;-82
2023/01/08 05:32:14;;;;;;;56.92;51.05;;;;;;;-3.72;100.00;101768.75;5035169;28;20045;-82
2023/01/08 05:34:41;;;;;;;55.88;50.15;;;;;;;-3.60;100.00;101768.97;5031927;28;20508;-82
2023/01/08 05:37:07;;;;;;;56.70;51.33;;;;;;;-3.64;100.00;101773.50;5032139;28;20056;-82
2023/01/08 05:39:34;;;;;;;57.13;51.25;;;;;;;-3.84;100.00;101781.56;5031833;28;20061;-82
2023/01/08 05:42:02;;;;;;;56.58;51.33;;;;;;;-3.58;100.00;101773.13;5032311;28;20042;-81
2023/01/08 05:44:29;;;;;;;58.85;52.75;;;;;;;-3.58;100.00;101764.53;5033196;28;20049;-82
2023/01/08 05:46:55;;;;;;;54.83;49.78;;;;;;;-3.66;100.00;101764.13;5032653;28;20580;-82
2023/01/08 05:49:24;;;;;;;57.53;51.80;;;;;;;-3.50;100.00;101754.53;5031970;28;20116;-81
2023/01/08 05:51:51;;;;;;;60.42;54.58;;;;;;;-3.52;100.00;101753.78;5031214;28;20169;-82
2023/01/08 05:54:17;;;;;;;58.78;52.95;;;;;;;-3.45;100.00;101768.06;5031851;28;20160;-82
2023/01/08 05:56:44;;;;;;;58.47;52.53;;;;;;;-3.28;100.00;101767.91;5033549;28;20096;-81
2023/01/08 05:59:11;;;;;;;56.38;50.40;;;;;;;-3.33;100.00;101769.13;5032995;28;20049;-81
2023/01/08 06:01:38;;;;;;;62.03;56.08;;;;;;;-3.37;100.00;101772.81;5036874;28;20477;-81
2023/01/08 06:04:05;;;;;;;59.13;53.28;;;;;;;-3.61;100.00;101769.88;5031475;28;20418;-82
2023/01/08 06:06:33;;;;;;;57.40;51.40;;;;;;;-3.83;100.00;101763.34;5032012;28;20107;-82
2023/01/08 06:09:00;;;;;;;58.75;52.85;;;;;;;-3.71;100.00;101762.63;5030450;28;20041;-81
2023/01/08 06:11:27;;;;;;;65.18;57.65;;;;;;;-3.33;100.00;101767.38;5033405;28;20465;-81
2023/01/08 06:13:53;;;;;;;68.47;61.28;;;;;;;-3.11;100.00;101773.91;5031552;28;20049;-82
2023/01/08 06:16:48;;;;;;;67.07;60.58;;;;;;;-2.74;100.00;101779.47;5088406;27;20408;-82
2023/01/08 06:19:17;;;;;;;63.63;57.10;;;;;;;-2.42;100.00;101777.47;5087916;28;20459;-82
2023/01/08 06:21:44;;;;;;;63.40;57.30;;;;;;;-2.62;100.00;101784.75;5087794;28;20040;-82
2023/01/08 06:24:11;;;;;;;60.38;54.60;;;;;;;-2.65;100.00;101778.91;5086961;28;20129;-82
2023/01/08 06:26:38;;;;;;;65.88;59.80;;;;;;;-2.17;100.00;101776.78;5089178;28;20117;-82
2023/01/08 06:29:04;;;;;;;65.25;59.28;;;;;;;-2.00;100.00;101778.28;5088003;28;20060;-81
2023/01/08 06:31:31;;;;;;;69.13;62.50;;;;;;;-1.95;100.00;101777.06;5087476;28;20048;-82
2023/01/08 06:33:59;;;;;;;78.70;70.28;;;;;;;-1.93;100.00;101783.03;5088726;28;20118;-81
2023/01/08 06:36:26;;;;;;;99.53;77.15;;;;;;;-1.78;100.00;101783.81;5088512;28;20165;-81
2023/01/08 06:38:54;;;;;;;92.00;66.28;;;;;;;-1.53;100.00;101788.22;5087555;28;20128;-81
2023/01/08 06:41:21;;;;;;;82.35;61.40;;;;;;;-1.78;100.00;101791.63;5089465;28;20047;-81
2023/01/08 06:43:48;;;;;;;77.68;62.05;;;;;;;-1.44;100.00;101798.03;5088443;28;20075;-81
2023/01/08 06:46:16;;;;;;;74.53;64.68;;;;;;;-0.81;100.00;101792.97;5088437;28;20052;-81
2023/01/08 06:48:42;;;;;;;77.68;62.92;;;;;;;-0.89;100.00;101800.50;5088018;28;20086;-81
2023/01/08 06:51:10;;;;;;;111.93;80.57;;;;;;;-0.65;100.00;101806.63;5089962;28;20052;-81
2023/01/08 06:53:37;;;;;;;149.13;90.93;;;;;;;-0.81;100.00;101808.63;5089047;28;20468;-81
2023/01/08 06:56:06;;;;;;;122.72;81.57;;;;;;;0.11;100.00;101807.34;5087281;28;20040;-81
2023/01/08 06:58:33;;;;;;;95.32;68.57;;;;;;;0.05;100.00;101802.56;5088812;28;20063;-81
2023/01/08 07:00:59;;;;;;;91.57;69.57;;;;;;;0.93;100.00;101804.78;5084486;28;20049;-82
2023/01/08 07:03:26;;;;;;;133.88;93.20;;;;;;;0.97;100.00;101803.59;5069821;28;20114;-82
2023/01/08 07:05:53;;;;;;;88.32;66.18;;;;;;;1.22;100.00;101807.81;5067826;28;20041;-82
2023/01/08 07:08:21;;;;;;;116.28;88.57;;;;;;;1.68;100.00;101809.44;5069771;28;20319;-82
2023/01/08 07:10:48;;;;;;;113.43;75.68;;;;;;;1.52;100.00;101807.19;5068872;28;20045;-82
2023/01/08 07:13:15;;;;;;;80.97;67.15;;;;;;;1.90;100.00;101801.53;5069475;28;20475;-82
2023/01/08 07:15:46;;;;;;;87.57;70.28;;;;;;;2.20;100.00;101808.72;4393791;27;10001142;-82
2023/01/08 07:18:13;;;;;;;109.75;76.85;;;;;;;1.87;100.00;101806.19;5107625;28;20508;-82
2023/01/08 07:20:40;;;;;;;106.20;79.65;;;;;;;2.70;100.00;101798.47;5105321;28;20054;-81
2023/01/08 07:23:10;;;;;;;110.25;84.25;;;;;;;3.10;100.00;101799.53;5104707;28;20105;-82
2023/01/08 07:25:38;;;;;;;123.47;86.70;;;;;;;2.87;100.00;101804.09;5104373;28;20047;-82
2023/01/08 07:28:05;;;;;;;150.07;94.85;;;;;;;3.59;100.00;101796.13;5092358;28;20052;-82
2023/01/08 07:30:32;;;;;;;132.75;89.57;;;;;;;3.76;100.00;101813.06;5094272;28;20097;-82
2023/01/08 07:32:59;;;;;;;195.73;112.32;;;;;;;3.93;100.00;101798.41;5094172;28;20132;-82
2023/01/08 07:35:37;;;;;;;112.60;84.10;;;;;;;3.65;100.00;101805.28;5091050;28;20051;-83
2023/01/08 07:38:24;;;;;;;115.20;82.28;;;;;;;4.33;100.00;101805.41;5096123;28;20048;-82
2023/01/08 07:40:54;;;;;;;131.00;81.18;;;;;;;4.97;100.00;101803.94;5094450;28;20097;-83
2023/01/08 07:43:21;;;;;;;223.30;111.40;;;;;;;4.80;100.00;101805.47;5093864;28;20048;-82
2023/01/08 07:45:47;;;;;;;93.03;72.03;;;;;;;5.43;100.00;101812.78;5089646;28;20044;-83
2023/01/08 07:48:15;;;;;;;76.07;65.25;;;;;;;5.47;100.00;101807.06;5068549;28;20049;-83
2023/01/08 07:50:42;;;;;;;144.50;84.70;;;;;;;5.69;100.00;101805.03;5056593;28;20140;-83
2023/01/08 07:53:11;;;;;;;70.40;63.35;;;;;;;6.21;100.00;101807.91;5054573;28;20124;-82
2023/01/08 07:55:38;;;;;;;74.10;65.88;;;;;;;6.32;100.00;101802.38;5055643;28;20037;-82
2023/01/08 07:58:11;;;;;;;117.50;79.55;;;;;;;6.61;100.00;101803.94;5055975;28;20045;-83
2023/01/08 08:00:37;;;;;;;;;;;;;;;6.76;100.00;101804.22;5056725;28;20049;-83
2023/01/08 08:03:10;;;;;;;170.25;91.88;;;;;;;6.88;100.00;101811.75;5055129;28;19924;-82
2023/01/08 08:05:38;;;;;;;74.45;62.95;;;;;;;7.23;100.00;101809.13;5058043;28;20045;-82
2023/01/08 08:08:10;;;;;;;61.45;55.92;;;;;;;8.02;100.00;101802.66;5054307;28;20576;-83
2023/01/08 08:10:37;;;;;;;68.07;61.30;;;;;;;8.08;100.00;101812.59;5052926;28;20053;-82
2023/01/08 08:13:04;;;;;;;78.82;68.75;;;;;;;8.17;100.00;101813.41;5056901;28;20472;-83
2023/01/08 08:15:33;;;;;;;149.43;88.55;;;;;;;8.66;100.00;101809.00;5051093;28;20057;-83
2023/01/08 08:18:00;;;;;;;118.63;82.25;;;;;;;8.51;100.00;101808.03;5053295;28;20049;-83
2023/01/08 08:20:27;;;;;;;74.28;66.45;;;;;;;9.33;100.00;101810.53;5051729;28;20488;-83
2023/01/08 08:23:00;;;;;;;138.77;91.70;;;;;;;8.88;100.00;101807.50;5047618;28;20553;-83
2023/01/08 08:25:27;;;;;;;62.53;56.75;;;;;;;9.43;100.00;101811.16;5048613;28;20494;-83
2023/01/08 08:27:56;;;;;;;59.92;54.97;;;;;;;9.90;100.00;101799.66;5058212;28;20071;-83
2023/01/08 08:30:23;;;;;;;61.08;55.90;;;;;;;9.67;100.00;101807.56;5053478;28;20052;-83
2023/01/08 08:32:51;;;;;;;89.40;70.35;;;;;;;10.11;100.00;101809.66;5049718;28;20073;-83
2023/01/08 08:35:18;;;;;;;74.18;64.90;;;;;;;10.93;100.00;101803.69;5054518;28;20041;-83
2023/01/08 08:37:44;;;;;;;72.25;64.50;;;;;;;10.53;100.00;101797.75;5052815;28;20114;-83
2023/01/08 08:40:12;;;;;;;70.97;62.30;;;;;;;10.61;100.00;101802.97;5054191;28;20052;-83
2023/01/08 08:42:38;;;;;;;57.90;53.50;;;;;;;11.35;100.00;101794.28;5059956;28;20048;-83
2023/01/08 08:45:07;;;;;;;59.83;55.15;;;;;;;10.52;100.00;101788.94;5054028;28;20041;-82
2023/01/08 08:47:33;;;;;;;59.53;55.00;;;;;;;10.93;100.00;101799.19;5052679;28;20052;-83
2023/01/08 08:50:02;;;;;;;61.47;56.55;;;;;;;11.22;100.00;101794.91;5054139;28;20087;-83
2023/01/08 08:52:30;;;;;;;59.20;54.55;;;;;;;11.58;100.00;101792.28;5057295;28;20069;-85
2023/01/08 08:54:56;;;;;;;59.40;54.70;;;;;;;11.67;100.00;101783.19;5055028;28;20518;-83
2023/01/08 08:57:24;;;;;;;59.53;54.92;;;;;;;12.23;100.00;101789.75;5047103;28;20049;-85
2023/01/08 08:59:50;;;;;;;57.95;53.45;;;;;;;11.73;100.00;101794.09;5047790;28;20053;-84
2023/01/08 09:02:17;;;;;;;57.45;53.05;;;;;;;10.91;100.00;101790.56;5054904;28;20494;-85
2023/01/08 09:04:44;;;;;;;58.60;53.97;;;;;;;12.99;100.00;101793.41;5053590;28;20502;-84
2023/01/08 09:07:12;;;;;;;64.07;58.97;;;;;;;13.00;100.00;101787.06;5058599;28;20041;-85
2023/01/08 09:09:39;;;;;;;65.78;59.65;;;;;;;13.06;100.00;101777.47;5056518;28;20464;-84
2023/01/08 09:12:06;;;;;;;62.63;57.53;;;;;;;12.71;100.00;101774.78;5050201;28;20071;-85
2023/01/08 09:14:33;;;;;;;59.35;54.80;;;;;;;13.18;100.00;101770.53;5058495;28;20426;-84
2023/01/08 09:16:59;;;;;;;58.90;54.03;;;;;;;12.20;100.00;101768.84;5047741;28;20048;-84
2023/01/08 09:19:26;;;;;;;58.30;53.70;;;;;;;12.55;100.00;101764.41;5056207;28;20044;-84
2023/01/08 09:21:53;;;;;;;59.75;55.13;;;;;;;12.07;100.00;101761.53;5053302;28;20045;-85
2023/01/08 09:24:21;;;;;;;62.15;56.85;;;;;;;12.60;100.00;101761.97;5047617;28;20103;-85
2023/01/08 09:26:48;;;;;;;60.70;55.95;;;;;;;13.67;100.00;101747.38;5049350;28;20041;-85
2023/01/08 09:29:15;;;;;;;60.72;55.78;;;;;;;13.18;97.01;101738.53;5047423;28;20099;-85
2023/01/08 09:31:41;;;;;;;61.22;56.20;;;;;;;14.23;99.19;101735.56;5052689;28;20049;-84
2023/01/08 09:34:08;;;;;;;59.33;54.72;;;;;;;13.74;95.95;101735.69;5056403;28;20477;-85
2023/01/08 09:36:35;;;;;;;58.80;54.20;;;;;;;12.54;100.00;101730.78;5050720;28;20045;-84
2023/01/08 09:39:01;;;;;;;60.00;55.00;;;;;;;10.55;100.00;101734.63;5049608;28;20053;-84
2023/01/08 09:41:32;;;;;;;59.00;54.35;;;;;;;13.17;100.00;101733.41;5054599;28;20053;-84
2023/01/08 09:44:00;;;;;;;59.15;54.28;;;;;;;15.02;94.59;101731.97;5052713;28;20049;-85
2023/01/08 09:46:29;;;;;;;57.80;53.35;;;;;;;15.87;83.02;101731.78;5053300;28;20075;-85
2023/01/08 09:48:58;;;;;;;62.75;57.65;;;;;;;13.79;100.00;101728.91;5052373;28;20083;-84
2023/01/08 09:51:33;;;;;;;63.60;58.20;;;;;;;15.12;100.00;101725.13;5049186;28;20045;-85
2023/01/08 09:54:00;;;;;;;64.82;59.33;;;;;;;13.64;100.00;101732.56;5047866;28;21167;-85
2023/01/08 09:56:27;;;;;;;64.43;58.85;;;;;;;13.72;100.00;101728.91;5047222;28;20041;-85
2023/01/08 09:58:58;;;;;;;63.50;58.22;;;;;;;15.55;100.00;101716.50;5055183;28;20095;-84
2023/01/08 10:01:28;;;;;;;68.00;62.03;;;;;;;12.45;100.00;101716.78;5050719;28;20049;-85
2023/01/08 10:03:59;;;;;;;68.53;62.85;;;;;;;15.21;98.98;101703.50;5050177;28;20075;-84
2023/01/08 10:06:26;;;;;;;67.97;62.67;;;;;;;15.00;89.89;101705.41;5051398;28;20075;-85
2023/01/08 10:08:53;;;;;;;67.45;61.83;;;;;;;15.04;100.00;101701.31;5051075;28;20476;-84
2023/01/08 10:11:20;;;;;;;68.72;62.47;;;;;;;13.25;100.00;101709.25;5057052;28;20102;-84
2023/01/08 10:13:52;;;;;;;67.45;61.45;;;;;;;16.14;94.28;101697.59;5056945;28;20497;-86
2023/01/08 10:16:26;;;;;;;68.07;61.95;;;;;;;16.87;81.65;101695.03;5051194;28;20049;-85
2023/01/08 10:18:53;;;;;;;70.97;64.28;;;;;;;14.93;97.96;101693.94;5048653;28;20087;-84
2023/01/08 10:21:24;;;;;;;72.28;65.85;;;;;;;15.57;92.85;101689.50;5048886;28;20060;-85
2023/01/08 10:23:52;;;;;;;76.88;69.47;;;;;;;12.06;100.00;101690.66;5048785;28;20045;-84
2023/01/08 10:26:28;;;;;;;76.13;68.80;;;;;;;11.83;100.00;101683.66;5050488;28;20053;-84
2023/01/08 10:29:11;;;;;;;77.00;69.93;;;;;;;12.19;100.00;101677.44;5045447;28;20053;-85
2023/01/08 10:31:51;;;;;;;79.43;71.68;;;;;;;14.29;100.00;101673.28;5055977;28;20049;-84
2023/01/08 10:34:31;;;;;;;76.45;69.80;;;;;;;14.27;100.00;101680.66;5050240;28;20103;-84
2023/01/08 10:36:58;;;;;;;75.78;68.47;;;;;;;13.13;100.00;101676.97;5052398;28;20072;-85
2023/01/08 10:39:28;;;;;;;70.25;63.83;;;;;;;12.70;100.00;101658.50;5049896;28;20036;-85
2023/01/08 10:41:57;;;;;;;73.25;66.07;;;;;;;13.07;100.00;101673.25;5055395;28;20048;-84
2023/01/08 10:44:26;;;;;;;70.40;63.92;;;;;;;11.78;100.00;101666.63;5052211;28;20139;-85
2023/01/08 10:46:58;;;;;;;71.95;65.40;;;;;;;11.88;100.00;101662.63;5045337;28;20061;-84
2023/01/08 10:49:32;;;;;;;76.05;68.05;;;;;;;13.22;100.00;101667.78;5058359;28;20502;-84
2023/01/08 10:52:00;;;;;;;70.68;64.10;;;;;;;13.75;100.00;101662.56;5055196;28;20045;-84
2023/01/08 10:54:32;;;;;;;72.45;65.72;;;;;;;12.00;100.00;101660.28;5050787;28;20050;-84
2023/01/08 10:57:00;;;;;;;71.95;65.28;;;;;;;11.46;100.00;101655.44;5053704;28;20503;-84
2023/01/08 10:59:27;;;;;;;73.25;65.85;;;;;;;12.40;100.00;101649.09;5053467;28;20076;-85
2023/01/08 11:01:57;;;;;;;72.78;65.65;;;;;;;12.28;100.00;101651.47;5053703;28;20144;-84
2023/01/08 11:04:31;;;;;;;70.30;64.03;;;;;;;13.01;100.00;101646.53;5052621;28;20061;-84
2023/01/08 11:07:01;;;;;;;71.00;64.63;;;;;;;12.32;100.00;101642.91;5052739;28;20472;-84
2023/01/08 11:09:31;;;;;;;77.10;69.05;;;;;;;12.73;100.00;101642.13;5059116;28;20490;-84
2023/01/08 11:12:03;;;;;;;72.45;65.75;;;;;;;12.44;100.00;101642.38;5054011;28;20108;-84
2023/01/08 11:14:34;;;;;;;75.43;68.60;;;;;;;13.38;100.00;101637.25;5054013;28;20061;-85